This is the latest recevied weather packets stored in our database for station/object IT9KVB-11. If no packets are shown the sender has not sent any weather packets the latest 10 day(s).
| Time | Temp. | Humidity | Pressure | Rain* | Wind** | Luminosity | Snow |
|---|---|---|---|---|---|---|---|
| 1777685871 | 7.78° C | 76% | 926 hPa | 0 mm | 19.22 m/s, 0° | - | - |
| 1777684955 | 7.78° C | 76% | 926 hPa | 0 mm | 19.22 m/s, 0° | - | - |
| 1777684039 | 7.78° C | 76% | 926 hPa | 0 mm | 19.22 m/s, 0° | - | - |
| 1777683123 | 7.78° C | 76% | 926 hPa | 0 mm | 19.22 m/s, 0° | - | - |
| 1777682207 | 7.78° C | 76% | 926 hPa | 0 mm | 19.22 m/s, 0° | - | - |
| 1777681291 | 7.78° C | 76% | 926 hPa | 0 mm | 19.22 m/s, 0° | - | - |
| 1777680375 | 7.78° C | 76% | 926 hPa | 0 mm | 19.22 m/s, 0° | - | - |
| 1777679459 | 7.78° C | 76% | 926 hPa | 0 mm | 19.22 m/s, 0° | - | - |
| 1777678543 | 7.78° C | 76% | 926 hPa | 0 mm | 19.22 m/s, 0° | - | - |
| 1777677627 | 7.78° C | 76% | 926 hPa | 0 mm | 19.22 m/s, 0° | - | - |
| 1777676711 | 7.78° C | 76% | 926 hPa | 0 mm | 19.22 m/s, 0° | - | - |
| 1777675795 | 7.78° C | 76% | 926 hPa | 0 mm | 19.22 m/s, 0° | - | - |
| 1777674879 | 7.78° C | 76% | 926 hPa | 0 mm | 19.22 m/s, 0° | - | - |
| 1777673964 | 7.78° C | 76% | 926 hPa | 0 mm | 19.22 m/s, 0° | - | - |
| 1777673047 | 7.78° C | 75% | 926 hPa | 0 mm | 34.87 m/s, 0° | - | - |
| 1777672131 | 7.78° C | 79% | 926 hPa | 0 mm | 34.87 m/s, 0° | - | - |
| 1777671215 | 8.33° C | 79% | 926 hPa | 0 mm | 34.87 m/s, 0° | - | - |
| 1777670299 | 7.22° C | 85% | 926 hPa | 0 mm | 9.83 m/s, 0° | - | - |
| 1777669383 | 7.22° C | 86% | 926 hPa | 0 mm | 8.05 m/s, 0° | - | - |
| 1777668467 | 7.22° C | 86% | 925 hPa | 0 mm | 7.15 m/s, 0° | - | - |
| 1777667551 | 7.78° C | 85% | 925 hPa | 0 mm | 0 m/s | - | - |
| 1777666635 | 7.78° C | 83% | 925 hPa | 0 mm | 0 m/s | - | - |
| 1777665719 | 8.33° C | 83% | 925 hPa | 0 mm | 3.13 m/s, 0° | - | - |
| 1777664803 | 7.78° C | 81% | 925 hPa | 0 mm | 4.02 m/s, 0° | - | - |
| 1777663887 | 8.33° C | 81% | 925 hPa | 0 mm | 16.09 m/s, 0° | - | - |
* Rain latest hour (hover to see other rain measurements)
** Current wind speed in m/s (hover to see current wind gust speed)